sensor_id;sensor_type;location;lat;lon;timestamp;pressure;altitude;pressure_sealevel;temperature;humidity
5146;BME280;2591;48.144;15.152;2022-12-18T19:16:44;78919.41;;;-144.65;100.00
5146;BME280;2591;48.144;15.152;2022-12-18T19:19:12;78927.56;;;-144.65;100.00
5146;BME280;2591;48.144;15.152;2022-12-18T19:21:42;78931.66;;;-144.65;100.00
5146;BME280;2591;48.144;15.152;2022-12-18T19:24:10;78931.66;;;-144.65;100.00
5146;BME280;2591;48.144;15.152;2022-12-18T19:26:38;78923.50;;;-144.65;100.00
5146;BME280;2591;48.144;15.152;2022-12-18T19:29:09;78935.75;;;-144.65;100.00
5146;BME280;2591;48.144;15.152;2022-12-18T19:31:37;78925.53;;;-144.65;100.00
5146;BME280;2591;48.144;15.152;2022-12-18T19:34:07;78925.53;;;-144.65;100.00
5146;BME280;2591;48.144;15.152;2022-12-18T19:36:37;78933.69;;;-144.65;100.00
5146;BME280;2591;48.144;15.152;2022-12-18T19:39:08;78925.53;;;-144.65;100.00
5146;BME280;2591;48.144;15.152;2022-12-18T19:41:37;78913.28;;;-144.65;100.00
5146;BME280;2591;48.144;15.152;2022-12-18T19:44:05;78917.38;;;-144.65;100.00
5146;BME280;2591;48.144;15.152;2022-12-18T19:46:34;78925.53;;;-144.65;100.00
5146;BME280;2591;48.144;15.152;2022-12-18T19:49:09;78921.47;;;-144.65;100.00
5146;BME280;2591;48.144;15.152;2022-12-18T19:51:42;78909.22;;;-144.65;100.00
5146;BME280;2591;48.144;15.152;2022-12-18T19:54:11;78894.94;;;-144.65;100.00
5146;BME280;2591;48.144;15.152;2022-12-18T19:56:43;78896.97;;;-144.65;100.00
5146;BME280;2591;48.144;15.152;2022-12-18T19:59:12;78913.28;;;-144.65;100.00
5146;BME280;2591;48.144;15.152;2022-12-18T20:01:40;78913.28;;;-144.65;100.00
5146;BME280;2591;48.144;15.152;2022-12-18T20:04:09;78909.22;;;-144.65;100.00
5146;BME280;2591;48.144;15.152;2022-12-18T20:06:45;78905.13;;;-144.65;100.00
5146;BME280;2591;48.144;15.152;2022-12-18T20:09:14;78896.97;;;-144.65;100.00
5146;BME280;2591;48.144;15.152;2022-12-18T20:11:43;78894.94;;;-144.65;100.00
5146;BME280;2591;48.144;15.152;2022-12-18T20:14:13;78894.94;;;-144.65;100.00
5146;BME280;2591;48.144;15.152;2022-12-18T20:16:49;78892.91;;;-144.65;100.00
5146;BME280;2591;48.144;15.152;2022-12-18T20:19:18;78888.81;;;-144.65;100.00
5146;BME280;2591;48.144;15.152;2022-12-18T20:21:46;78888.81;;;-144.65;100.00
5146;BME280;2591;48.144;15.152;2022-12-18T20:24:14;78892.91;;;-144.65;100.00
5146;BME280;2591;48.144;15.152;2022-12-18T20:26:42;78880.66;;;-144.65;100.00
5146;BME280;2591;48.144;15.152;2022-12-18T20:29:10;78876.56;;;-144.65;100.00
5146;BME280;2591;48.144;15.152;2022-12-18T20:31:38;78874.53;;;-144.65;100.00
5146;BME280;2591;48.144;15.152;2022-12-18T20:34:06;78872.50;;;-144.65;100.00
5146;BME280;2591;48.144;15.152;2022-12-18T20:36:36;78866.38;;;-144.65;100.00
5146;BME280;2591;48.144;15.152;2022-12-18T20:39:05;78856.16;;;-144.65;100.00
5146;BME280;2591;48.144;15.152;2022-12-18T20:41:35;78852.09;;;-144.65;100.00
5146;BME280;2591;48.144;15.152;2022-12-18T20:44:05;78866.38;;;-144.65;100.00
5146;BME280;2591;48.144;15.152;2022-12-18T20:46:51;78856.16;;;-144.65;100.00
5146;BME280;2591;48.144;15.152;2022-12-18T20:49:19;78860.25;;;-144.65;100.00
5146;BME280;2591;48.144;15.152;2022-12-18T20:51:50;78852.09;;;-144.65;100.00
5146;BME280;2591;48.144;15.152;2022-12-18T20:54:19;78860.25;;;-144.65;100.00
5146;BME280;2591;48.144;15.152;2022-12-18T20:56:47;78843.91;;;-144.65;100.00
5146;BME280;2591;48.144;15.152;2022-12-18T20:59:15;78850.03;;;-144.65;100.00
5146;BME280;2591;48.144;15.152;2022-12-18T21:01:43;78856.16;;;-144.65;100.00
5146;BME280;2591;48.144;15.152;2022-12-18T21:04:15;78852.09;;;-144.65;100.00
5146;BME280;2591;48.144;15.152;2022-12-18T21:06:44;78843.91;;;-144.65;100.00
5146;BME280;2591;48.144;15.152;2022-12-18T21:09:18;78839.84;;;-144.65;100.00
5146;BME280;2591;48.144;15.152;2022-12-18T21:11:46;78831.69;;;-144.65;100.00
5146;BME280;2591;48.144;15.152;2022-12-18T21:14:32;78841.88;;;-144.65;100.00
5146;BME280;2591;48.144;15.152;2022-12-18T21:17:00;78833.72;;;-144.65;100.00
5146;BME280;2591;48.144;15.152;2022-12-18T21:19:28;78827.59;;;-144.65;100.00
5146;BME280;2591;48.144;15.152;2022-12-18T21:21:56;78823.53;;;-144.65;100.00
5146;BME280;2591;48.144;15.152;2022-12-18T21:24:26;78821.47;;;-144.65;100.00
5146;BME280;2591;48.144;15.152;2022-12-18T21:27:01;78823.53;;;-144.65;100.00
5146;BME280;2591;48.144;15.152;2022-12-18T21:29:29;78815.34;;;-144.65;100.00
5146;BME280;2591;48.144;15.152;2022-12-18T21:31:58;78817.41;;;-144.65;100.00
5146;BME280;2591;48.144;15.152;2022-12-18T21:34:28;78815.34;;;-144.65;100.00
5146;BME280;2591;48.144;15.152;2022-12-18T21:36:57;78819.44;;;-144.65;100.00
5146;BME280;2591;48.144;15.152;2022-12-18T21:39:28;78813.31;;;-144.65;100.00
5146;BME280;2591;48.144;15.152;2022-12-18T21:41:57;78809.22;;;-144.65;100.00
5146;BME280;2591;48.144;15.152;2022-12-18T21:44:43;78815.34;;;-144.65;100.00
5146;BME280;2591;48.144;15.152;2022-12-18T21:47:13;78807.19;;;-144.65;100.00
5146;BME280;2591;48.144;15.152;2022-12-18T21:49:49;78815.34;;;-144.65;100.00
5146;BME280;2591;48.144;15.152;2022-12-18T21:52:17;78807.19;;;-144.65;100.00
5146;BME280;2591;48.144;15.152;2022-12-18T21:54:48;78794.94;;;-144.65;100.00
5146;BME280;2591;48.144;15.152;2022-12-18T21:57:16;78794.94;;;-144.65;100.00
5146;BME280;2591;48.144;15.152;2022-12-18T21:59:44;78794.94;;;-144.65;100.00
5146;BME280;2591;48.144;15.152;2022-12-18T22:02:14;78799.03;;;-144.65;100.00
5146;BME280;2591;48.144;15.152;2022-12-18T22:04:43;78794.94;;;-144.65;100.00
5146;BME280;2591;48.144;15.152;2022-12-18T22:07:13;78794.94;;;-144.65;100.00
5146;BME280;2591;48.144;15.152;2022-12-18T22:09:41;78784.75;;;-144.65;100.00
5146;BME280;2591;48.144;15.152;2022-12-18T22:12:12;78780.66;;;-144.65;100.00
5146;BME280;2591;48.144;15.152;2022-12-18T22:15:00;78770.47;;;-144.65;100.00
5146;BME280;2591;48.144;15.152;2022-12-18T22:17:28;78766.38;;;-144.65;100.00
5146;BME280;2591;48.144;15.152;2022-12-18T22:19:56;78768.44;;;-144.65;100.00
5146;BME280;2591;48.144;15.152;2022-12-18T22:22:24;78758.22;;;-144.65;100.00
5146;BME280;2591;48.144;15.152;2022-12-18T22:24:52;78754.16;;;-144.65;100.00
5146;BME280;2591;48.144;15.152;2022-12-18T22:27:22;78754.16;;;-144.65;100.00
5146;BME280;2591;48.144;15.152;2022-12-18T22:29:49;78745.97;;;-144.65;100.00
5146;BME280;2591;48.144;15.152;2022-12-18T22:32:32;78758.22;;;-144.65;100.00
5146;BME280;2591;48.144;15.152;2022-12-18T22:35:01;78748.03;;;-144.65;100.00
5146;BME280;2591;48.144;15.152;2022-12-18T22:37:36;78737.81;;;-144.65;100.00
5146;BME280;2591;48.144;15.152;2022-12-18T22:40:05;78729.66;;;-144.65;100.00
5146;BME280;2591;48.144;15.152;2022-12-18T22:42:35;78743.94;;;-144.65;100.00
5146;BME280;2591;48.144;15.152;2022-12-18T22:45:03;78729.66;;;-144.65;100.00
5146;BME280;2591;48.144;15.152;2022-12-18T22:47:31;78727.63;;;-144.65;100.00
5146;BME280;2591;48.144;15.152;2022-12-18T22:49:59;78725.56;;;-144.65;100.00
5146;BME280;2591;48.144;15.152;2022-12-18T22:52:27;78723.53;;;-144.65;100.00
5146;BME280;2591;48.144;15.152;2022-12-18T22:54:55;78719.47;;;-144.65;100.00
5146;BME280;2591;48.144;15.152;2022-12-18T22:57:23;78717.41;;;-144.65;100.00
5146;BME280;2591;48.144;15.152;2022-12-18T22:59:52;78713.34;;;-144.65;100.00
5146;BME280;2591;48.144;15.152;2022-12-18T23:02:20;78717.41;;;-144.65;100.00
5146;BME280;2591;48.144;15.152;2022-12-18T23:04:48;78709.25;;;-144.65;100.00
5146;BME280;2591;48.144;15.152;2022-12-18T23:07:16;78709.25;;;-144.65;100.00
5146;BME280;2591;48.144;15.152;2022-12-18T23:09:44;78713.34;;;-144.65;100.00
5146;BME280;2591;48.144;15.152;2022-12-18T23:12:17;78705.19;;;-144.65;100.00
5146;BME280;2591;48.144;15.152;2022-12-18T23:14:46;78703.13;;;-144.65;100.00
5146;BME280;2591;48.144;15.152;2022-12-18T23:17:15;78688.84;;;-144.65;100.00
5146;BME280;2591;48.144;15.152;2022-12-18T23:19:42;78697.00;;;-144.65;100.00
5146;BME280;2591;48.144;15.152;2022-12-18T23:22:15;78688.84;;;-144.65;100.00
5146;BME280;2591;48.144;15.152;2022-12-18T23:24:42;78684.78;;;-144.65;100.00
5146;BME280;2591;48.144;15.152;2022-12-18T23:27:10;78672.53;;;-144.65;100.00
5146;BME280;2591;48.144;15.152;2022-12-18T23:29:39;78668.44;;;-144.65;100.00
5146;BME280;2591;48.144;15.152;2022-12-18T23:32:07;78680.69;;;-144.65;100.00
5146;BME280;2591;48.144;15.152;2022-12-18T23:34:36;78664.38;;;-144.65;100.00
5146;BME280;2591;48.144;15.152;2022-12-18T23:37:04;78660.28;;;-144.65;100.00
5146;BME280;2591;48.144;15.152;2022-12-18T23:39:31;78656.22;;;-144.65;100.00
5146;BME280;2591;48.144;15.152;2022-12-18T23:41:59;78656.22;;;-144.65;100.00
5146;BME280;2591;48.144;15.152;2022-12-18T23:44:27;78646.00;;;-144.65;100.00
5146;BME280;2591;48.144;15.152;2022-12-18T23:46:55;78650.09;;;-144.65;100.00
5146;BME280;2591;48.144;15.152;2022-12-18T23:49:23;78648.03;;;-144.65;100.00
5146;BME280;2591;48.144;15.152;2022-12-18T23:51:53;78643.97;;;-144.65;100.00
5146;BME280;2591;48.144;15.152;2022-12-18T23:54:21;78629.69;;;-144.65;100.00
5146;BME280;2591;48.144;15.152;2022-12-18T23:57:00;78639.88;;;-144.65;100.00
5146;BME280;2591;48.144;15.152;2022-12-18T23:59:28;78643.97;;;-144.65;100.00
